Time;durP1;ratioP1;P1;durP2;ratioP2;P2;SDS_P1;SDS_P2;PMS_P1;PMS_P2;Temp;Humidity;BMP_temperature;BMP_pressure;BME280_temperature;BME280_humidity;BME280_pressure;Samples;Min_cycle;Max_cycle;Signal;HPM_P1;HPM_P2
2023/02/18 00:01:16;;;;;;;36.10;8.32;;;;;;;5.56;100.00;101580.00;10086691;28;20063;-67
2023/02/18 00:06:31;;;;;;;29.10;8.05;;;;;;;5.54;100.00;101574.00;10086290;28;20409;-67
2023/02/18 00:11:30;;;;;;;27.90;7.35;;;;;;;5.64;100.00;101572.19;10075341;28;20051;-68
2023/02/18 00:16:29;;;;;;;20.05;5.60;;;;;;;5.67;100.00;101568.13;10081192;28;20051;-68
2023/02/18 00:21:25;;;;;;;32.28;8.65;;;;;;;5.57;100.00;101571.59;10094112;28;20047;-68
2023/02/18 00:26:22;;;;;;;24.35;7.10;;;;;;;5.61;100.00;101586.25;10087840;28;20046;-67
2023/02/18 00:31:21;;;;;;;26.50;7.82;;;;;;;5.48;100.00;101594.88;10078435;28;20089;-67
2023/02/18 00:36:20;;;;;;;24.05;8.35;;;;;;;5.45;100.00;101589.94;10085547;28;20101;-67
2023/02/18 00:41:18;;;;;;;27.75;8.45;;;;;;;5.41;100.00;101602.44;10088346;28;20085;-67
2023/02/18 00:46:15;;;;;;;28.27;7.88;;;;;;;5.42;100.00;101595.91;10083373;28;20295;-67
2023/02/18 00:51:11;;;;;;;38.00;7.57;;;;;;;5.39;100.00;101599.16;10084556;28;20046;-67
2023/02/18 00:56:08;;;;;;;25.90;6.75;;;;;;;5.40;100.00;101608.91;10082383;28;20753;-67
2023/02/18 01:01:07;;;;;;;24.85;7.35;;;;;;;5.36;100.00;101613.22;10076240;28;20079;-67
2023/02/18 01:06:05;;;;;;;19.27;6.70;;;;;;;5.39;100.00;101602.69;10086102;28;20079;-69
2023/02/18 01:11:03;;;;;;;34.03;8.50;;;;;;;5.40;100.00;101619.75;10079815;28;20142;-69
2023/02/18 01:16:00;;;;;;;19.63;6.30;;;;;;;5.39;100.00;101604.56;10078307;28;20047;-66
2023/02/18 01:20:58;;;;;;;35.05;7.38;;;;;;;5.40;100.00;101606.19;10090205;28;20109;-66
2023/02/18 01:25:56;;;;;;;26.50;7.97;;;;;;;5.32;100.00;101623.78;10085488;28;20043;-67
2023/02/18 01:30:53;;;;;;;19.38;6.68;;;;;;;5.34;100.00;101615.38;10088389;28;20047;-68
2023/02/18 01:35:51;;;;;;;33.20;9.20;;;;;;;5.33;100.00;101619.16;10083082;28;20154;-67
2023/02/18 01:40:51;;;;;;;28.38;8.40;;;;;;;5.31;100.00;101607.75;10088180;28;20163;-67
2023/02/18 01:46:05;;;;;;;24.30;7.68;;;;;;;5.30;100.00;101619.69;10082633;28;20055;-67
2023/02/18 01:51:13;;;;;;;31.95;7.45;;;;;;;5.23;100.00;101609.88;10074004;28;20386;-67
2023/02/18 01:56:16;;;;;;;21.20;7.03;;;;;;;5.24;100.00;101599.84;10080189;28;20066;-66
2023/02/18 02:01:12;;;;;;;32.05;7.30;;;;;;;5.25;100.00;101591.47;10076800;28;21758;-67
2023/02/18 02:06:15;;;;;;;31.67;8.13;;;;;;;5.25;100.00;101586.03;10080462;28;20110;-67
2023/02/18 02:11:45;;;;;;;21.70;7.50;;;;;;;5.25;100.00;101585.22;10069499;28;20069;-67
2023/02/18 02:17:06;;;;;;;31.58;8.82;;;;;;;5.28;100.00;101588.22;10082124;28;20051;-66
2023/02/18 02:22:17;;;;;;;27.58;7.95;;;;;;;5.24;100.00;101584.41;10069940;28;20079;-68
2023/02/18 02:27:22;;;;;;;26.25;6.22;;;;;;;5.24;100.00;101589.84;10068468;28;20126;-67
2023/02/18 02:32:37;;;;;;;19.58;6.90;;;;;;;5.21;100.00;101586.81;10078486;28;20146;-67
2023/02/18 02:37:57;;;;;;;15.68;7.25;;;;;;;5.19;100.00;101584.38;10073735;28;20043;-67
2023/02/18 02:43:03;;;;;;;26.48;8.93;;;;;;;5.14;100.00;101573.50;10071732;28;20042;-67
2023/02/18 02:48:18;;;;;;;15.73;7.40;;;;;;;5.11;100.00;101574.00;10086518;28;20666;-66
2023/02/18 02:53:23;;;;;;;19.67;7.07;;;;;;;5.12;100.00;101564.78;10090321;28;20050;-67
2023/02/18 02:58:20;;;;;;;22.13;7.47;;;;;;;5.14;100.00;101568.06;10075661;28;20047;-68
2023/02/18 03:03:31;;;;;;;19.85;6.72;;;;;;;5.17;100.00;101556.69;10076463;28;20043;-68
2023/02/18 03:08:46;;;;;;;20.17;6.97;;;;;;;5.19;100.00;101540.97;10078510;28;20546;-68
2023/02/18 03:14:00;;;;;;;16.02;6.10;;;;;;;5.23;100.00;101544.81;10078901;28;20081;-67
2023/02/18 03:19:15;;;;;;;19.08;7.25;;;;;;;5.22;100.00;101547.78;10044310;28;20528;-66
2023/02/18 03:24:25;;;;;;;23.35;7.30;;;;;;;5.17;100.00;101545.84;10078478;28;20469;-68
2023/02/18 03:29:22;;;;;;;16.38;6.38;;;;;;;5.21;100.00;101549.69;10079798;28;20130;-66
2023/02/18 03:34:27;;;;;;;12.95;6.40;;;;;;;5.21;100.00;101562.41;10081318;28;20143;-67
2023/02/18 03:39:27;;;;;;;19.27;6.55;;;;;;;5.21;100.00;101557.81;10086924;28;20055;-67
2023/02/18 03:44:24;;;;;;;16.90;6.63;;;;;;;5.22;100.00;101564.03;10069888;28;20050;-68
2023/02/18 03:49:21;;;;;;;18.27;6.05;;;;;;;5.24;100.00;101557.31;10083318;28;20149;-67
2023/02/18 03:54:19;;;;;;;14.35;6.80;;;;;;;5.24;100.00;101545.63;10073423;28;20062;-66
2023/02/18 03:59:15;;;;;;;18.77;6.22;;;;;;;5.25;100.00;101542.66;10081489;28;20066;-67
2023/02/18 04:04:11;;;;;;;18.85;6.63;;;;;;;5.25;100.00;101542.66;10078915;28;20063;-68
2023/02/18 04:09:08;;;;;;;12.02;6.07;;;;;;;5.28;100.00;101547.53;10085865;28;20043;-68
2023/02/18 04:14:05;;;;;;;15.70;6.00;;;;;;;5.32;100.00;101547.03;10077725;28;20169;-67
2023/02/18 04:19:02;;;;;;;14.82;6.38;;;;;;;5.24;100.00;101540.19;10089050;28;20043;-67
2023/02/18 04:23:59;;;;;;;20.08;7.30;;;;;;;5.19;100.00;101538.28;10089385;28;20051;-67
2023/02/18 04:28:56;;;;;;;17.48;7.93;;;;;;;5.13;100.00;101533.91;10078106;28;20494;-68
2023/02/18 04:33:52;;;;;;;14.82;7.28;;;;;;;5.11;100.00;101522.50;10086133;28;20043;-67
2023/02/18 04:38:48;;;;;;;18.65;7.55;;;;;;;5.10;100.00;101515.44;10076629;28;20053;-67
2023/02/18 04:43:45;;;;;;;15.90;7.22;;;;;;;5.03;100.00;101512.94;10082697;28;20440;-67
2023/02/18 04:48:41;;;;;;;18.45;8.25;;;;;;;4.92;100.00;101511.28;10070439;28;20544;-68
2023/02/18 04:53:38;;;;;;;12.32;8.15;;;;;;;4.85;100.00;101505.25;10090619;28;20136;-68
2023/02/18 04:58:34;;;;;;;20.15;10.25;;;;;;;4.89;100.00;101505.53;10079250;28;20061;-68
2023/02/18 05:03:31;;;;;;;18.08;8.82;;;;;;;4.91;100.00;101520.47;10077490;28;20211;-66
2023/02/18 05:08:28;;;;;;;12.30;8.68;;;;;;;5.00;100.00;101501.84;10075055;28;20074;-65
2023/02/18 05:13:24;;;;;;;20.33;10.07;;;;;;;4.97;100.00;101503.19;10079593;28;20134;-66
2023/02/18 05:18:21;;;;;;;25.70;8.27;;;;;;;4.93;100.00;101501.25;10086671;28;20075;-68
2023/02/18 05:23:19;;;;;;;16.40;8.73;;;;;;;4.90;100.00;101507.16;10081073;28;20548;-66
2023/02/18 05:28:15;;;;;;;20.73;8.48;;;;;;;4.84;100.00;101504.44;10086081;28;20039;-67
2023/02/18 05:33:12;;;;;;;16.75;9.65;;;;;;;4.77;100.00;101498.41;10081564;28;20142;-65
2023/02/18 05:38:09;;;;;;;20.35;10.35;;;;;;;4.76;100.00;101485.97;10081556;28;20053;-66
2023/02/18 05:43:05;;;;;;;16.73;11.02;;;;;;;4.71;100.00;101488.63;10090355;28;20509;-65
2023/02/18 05:48:02;;;;;;;17.35;10.90;;;;;;;4.73;100.00;101486.47;10073264;28;20043;-66
2023/02/18 05:52:58;;;;;;;22.35;10.30;;;;;;;4.69;100.00;101479.94;10075289;28;20497;-66
2023/02/18 05:57:55;;;;;;;12.38;9.98;;;;;;;4.62;100.00;101480.16;10076710;28;20043;-66
2023/02/18 06:02:51;;;;;;;15.52;10.95;;;;;;;4.63;100.00;101492.63;10084210;28;20066;-66
2023/02/18 06:07:48;;;;;;;22.45;10.82;;;;;;;4.60;100.00;101470.66;10075886;28;20133;-66
2023/02/18 06:12:44;;;;;;;15.32;10.45;;;;;;;4.59;100.00;101474.44;10082448;28;20054;-66
2023/02/18 06:17:41;;;;;;;16.85;10.55;;;;;;;4.55;100.00;101481.44;10079585;28;20498;-66
2023/02/18 06:22:37;;;;;;;13.48;10.40;;;;;;;4.52;100.00;101463.00;10077360;28;20098;-66
2023/02/18 06:27:33;;;;;;;14.77;10.73;;;;;;;4.46;100.00;101434.28;10076860;28;20500;-67
2023/02/18 06:32:30;;;;;;;11.65;10.13;;;;;;;4.41;100.00;101419.63;10078379;28;20051;-67
2023/02/18 06:37:26;;;;;;;18.75;11.55;;;;;;;4.39;100.00;101424.47;10084405;28;20131;-68
2023/02/18 06:42:23;;;;;;;13.70;10.70;;;;;;;4.39;100.00;101427.16;10091765;28;20506;-68
2023/02/18 06:47:19;;;;;;;15.27;10.73;;;;;;;4.37;100.00;101413.06;10090045;28;20107;-66
2023/02/18 06:52:15;;;;;;;17.23;12.60;;;;;;;4.45;100.00;101402.84;10074940;28;20134;-66
2023/02/18 06:57:12;;;;;;;15.48;11.85;;;;;;;4.53;100.00;101378.00;10073856;28;20406;-66
2023/02/18 07:02:14;;;;;;;12.90;11.02;;;;;;;4.54;100.00;101374.19;10074252;28;20412;-66
2023/02/18 07:07:11;;;;;;;12.50;10.30;;;;;;;4.57;100.00;101357.41;10068424;28;20043;-66
2023/02/18 07:12:07;;;;;;;14.15;12.90;;;;;;;4.64;100.00;101352.56;10078723;28;20085;-66
2023/02/18 07:17:03;;;;;;;14.57;13.18;;;;;;;4.68;100.00;101353.69;10071908;28;20130;-66
2023/02/18 07:22:00;;;;;;;12.98;11.88;;;;;;;4.73;100.00;101356.41;10077747;28;20142;-65
2023/02/18 07:26:56;;;;;;;14.50;12.55;;;;;;;4.74;100.00;101352.66;10080922;28;20474;-67
2023/02/18 07:31:53;;;;;;;18.98;13.27;;;;;;;4.77;100.00;101343.97;10075922;28;20051;-66
2023/02/18 07:36:49;;;;;;;19.05;13.68;;;;;;;4.81;100.00;101304.44;10081453;28;20075;-66
2023/02/18 07:41:46;;;;;;;16.20;13.45;;;;;;;4.84;100.00;101284.94;10080879;28;20043;-66
2023/02/18 07:46:43;;;;;;;15.77;13.68;;;;;;;4.91;100.00;101286.59;10075909;28;20038;-66
2023/02/18 07:51:42;;;;;;;15.80;13.10;;;;;;;4.92;100.00;101271.97;10077684;28;20058;-66
2023/02/18 07:56:39;;;;;;;15.95;13.82;;;;;;;5.02;100.00;101250.34;10071142;28;20470;-67
2023/02/18 08:01:35;;;;;;;20.45;14.65;;;;;;;5.12;100.00;101234.06;10070220;28;20667;-66
2023/02/18 08:06:41;;;;;;;17.75;14.43;;;;;;;5.20;100.00;101219.19;10072748;28;20082;-67
2023/02/18 08:11:37;;;;;;;18.60;13.55;;;;;;;5.23;100.00;101205.91;10060678;28;20055;-68
2023/02/18 08:16:34;;;;;;;14.85;13.45;;;;;;;5.23;100.00;101207.81;10064304;28;20052;-68
2023/02/18 08:21:31;;;;;;;17.10;13.80;;;;;;;5.27;100.00;101207.00;10074431;28;20071;-66
2023/02/18 08:26:28;;;;;;;17.33;14.73;;;;;;;5.33;100.00;101207.00;10070109;28;20050;-66
2023/02/18 08:31:27;;;;;;;16.20;13.88;;;;;;;5.31;100.00;101198.31;10062323;28;20051;-65
2023/02/18 08:36:24;;;;;;;18.60;14.77;;;;;;;5.34;100.00;101201.31;10074382;28;20051;-66
2023/02/18 08:41:20;;;;;;;16.95;12.93;;;;;;;5.31;100.00;101195.59;10061503;28;20051;-68
2023/02/18 08:46:17;;;;;;;15.65;14.13;;;;;;;5.34;100.00;101186.91;10070385;28;20070;-67
2023/02/18 08:51:31;;;;;;;24.98;14.45;;;;;;;5.38;100.00;101177.16;10072368;28;20088;-68
2023/02/18 08:56:28;;;;;;;15.52;13.98;;;;;;;5.40;100.00;101145.16;10066443;28;20070;-68
2023/02/18 09:01:25;;;;;;;16.05;14.15;;;;;;;5.42;100.00;101146.50;10081079;28;20647;-67
2023/02/18 09:06:22;;;;;;;17.02;15.35;;;;;;;5.46;100.00;101131.31;10069272;28;20501;-68
2023/02/18 09:11:19;;;;;;;15.82;14.25;;;;;;;5.44;100.00;101111.00;10053081;28;20058;-68
2023/02/18 09:16:17;;;;;;;19.17;16.10;;;;;;;5.40;100.00;101082.78;10064473;28;20059;-67
2023/02/18 09:21:17;;;;;;;19.58;16.65;;;;;;;5.45;100.00;101077.34;10068670;28;20038;-68
2023/02/18 09:26:16;;;;;;;19.95;15.68;;;;;;;5.48;100.00;101071.41;10067001;28;20134;-68
2023/02/18 09:31:17;;;;;;;20.88;17.33;;;;;;;5.55;100.00;101063.78;10054497;28;20193;-68
2023/02/18 09:36:14;;;;;;;21.13;18.63;;;;;;;5.58;100.00;101057.78;10072747;28;20047;-68
2023/02/18 09:41:21;;;;;;;20.98;19.08;;;;;;;5.62;100.00;101048.03;10064227;28;20061;-68
2023/02/18 09:46:25;;;;;;;21.60;19.40;;;;;;;5.65;100.00;101036.63;10068156;28;20051;-68
2023/02/18 09:51:21;;;;;;;22.67;20.30;;;;;;;5.72;100.00;101035.50;10067623;28;20042;-68
2023/02/18 09:56:31;;;;;;;25.55;23.05;;;;;;;5.66;100.00;101021.97;10062575;28;20055;-68
2023/02/18 10:01:31;;;;;;;25.92;23.40;;;;;;;5.66;100.00;100994.84;10074664;28;20078;-68
2023/02/18 10:06:34;;;;;;;24.85;22.42;;;;;;;5.70;100.00;100995.91;10048423;28;20138;-68
2023/02/18 10:11:36;;;;;;;22.13;20.08;;;;;;;5.70;100.00;100995.91;10066730;28;20134;-68
2023/02/18 10:16:33;;;;;;;23.40;21.00;;;;;;;5.70;100.00;100990.47;10066812;28;20051;-69
2023/02/18 10:21:34;;;;;;;22.65;20.20;;;;;;;5.59;100.00;100994.34;10060985;28;20059;-68
2023/02/18 10:26:34;;;;;;;27.50;21.10;;;;;;;5.78;100.00;100963.84;10077401;28;20055;-68
2023/02/18 10:31:35;;;;;;;24.10;20.17;;;;;;;5.72;100.00;100970.41;10066503;28;20043;-68
2023/02/18 10:36:54;;;;;;;21.70;19.58;;;;;;;5.84;100.00;100968.97;10063657;28;20056;-69
2023/02/18 10:42:28;;;;;;;23.27;20.85;;;;;;;5.90;100.00;100956.19;10074146;28;20130;-68
2023/02/18 10:47:52;;;;;;;22.92;20.50;;;;;;;6.03;100.00;100933.88;10058609;28;20433;-69
2023/02/18 10:52:54;;;;;;;21.13;19.30;;;;;;;6.18;100.00;100924.00;10066534;28;20070;-69
2023/02/18 10:57:54;;;;;;;23.20;21.10;;;;;;;6.21;100.00;100923.44;10078006;28;20071;-69
2023/02/18 11:03:13;;;;;;;21.73;19.65;;;;;;;6.27;100.00;100906.03;10064944;28;20043;-69
2023/02/18 11:08:20;;;;;;;24.17;21.80;;;;;;;6.17;100.00;100900.66;10061354;28;20063;-69
2023/02/18 11:13:25;;;;;;;22.08;20.08;;;;;;;6.23;100.00;100902.25;10072576;28;20082;-68
2023/02/18 11:18:21;;;;;;;21.95;20.02;;;;;;;6.29;100.00;100882.13;10066629;28;20047;-68
2023/02/18 11:23:20;;;;;;;25.65;22.95;;;;;;;6.26;100.00;100872.59;10075900;28;20154;-69
2023/02/18 11:28:17;;;;;;;24.05;21.85;;;;;;;6.50;100.00;100845.50;10062642;28;21698;-69
2023/02/18 11:33:28;;;;;;;26.15;23.52;;;;;;;6.59;100.00;100844.88;10081186;28;20047;-69
2023/02/18 11:38:32;;;;;;;23.45;21.25;;;;;;;6.68;100.00;100843.97;10082729;28;20171;-69
2023/02/18 11:43:30;;;;;;;22.60;20.50;;;;;;;6.78;100.00;100834.06;10075564;28;20051;-69
2023/02/18 11:48:27;;;;;;;21.67;19.70;;;;;;;6.79;100.00;100828.34;10071682;28;20059;-69
2023/02/18 11:53:28;;;;;;;18.52;16.83;;;;;;;7.02;100.00;100829.44;10077027;28;20089;-69
2023/02/18 11:58:25;;;;;;;12.05;11.05;;;;;;;7.38;100.00;100843.38;10073576;28;20051;-69
2023/02/18 12:03:37;;;;;;;9.02;8.32;;;;;;;7.79;100.00;100852.84;10071870;28;20175;-69
2023/02/18 12:08:49;;;;;;;8.73;7.10;;;;;;;8.05;100.00;100880.47;10059307;28;20130;-69
2023/02/18 12:13:55;;;;;;;7.15;6.45;;;;;;;8.11;100.00;100876.56;10074337;28;20047;-69
2023/02/18 12:19:33;;;;;;;7.15;6.65;;;;;;;8.15;100.00;100877.59;10074068;28;20039;-68
2023/02/18 12:24:34;;;;;;;7.20;6.60;;;;;;;8.14;100.00;100895.03;10066429;28;20137;-68
2023/02/18 12:29:48;;;;;;;9.82;7.75;;;;;;;8.12;100.00;100878.22;10071028;28;20078;-69
2023/02/18 12:35:25;;;;;;;8.98;7.97;;;;;;;8.09;100.00;100895.13;10070960;28;20039;-68
2023/02/18 12:41:10;;;;;;;8.00;7.40;;;;;;;8.00;100.00;100902.34;10075525;28;20478;-68
2023/02/18 12:46:36;;;;;;;10.70;7.68;;;;;;;7.93;100.00;100929.94;10059563;28;20090;-69
2023/02/18 12:51:59;;;;;;;11.82;8.32;;;;;;;7.90;100.00;100905.25;10071293;28;20576;-69
2023/02/18 12:57:25;;;;;;;10.43;8.45;;;;;;;7.87;100.00;100924.91;10071994;28;20170;-69
2023/02/18 13:02:33;;;;;;;17.30;9.05;;;;;;;7.84;100.00;100917.28;10068517;28;20526;-69
2023/02/18 13:08:07;;;;;;;11.50;8.10;;;;;;;7.84;100.00;100920.81;10070488;28;20127;-69
2023/02/18 13:13:10;;;;;;;17.63;8.63;;;;;;;7.82;100.00;100927.66;10070759;28;20162;-69
2023/02/18 13:18:17;;;;;;;12.10;8.82;;;;;;;7.77;100.00;100943.00;10067651;28;20131;-69
2023/02/18 13:23:31;;;;;;;14.02;8.95;;;;;;;7.74;100.00;100948.19;10074534;28;20525;-69
2023/02/18 13:28:31;;;;;;;13.35;8.70;;;;;;;7.75;100.00;100953.34;10078639;28;20101;-69
2023/02/18 13:33:43;;;;;;;25.45;10.18;;;;;;;7.71;100.00;100968.66;10072118;28;20049;-69
2023/02/18 13:38:57;;;;;;;23.38;10.55;;;;;;;7.69;100.00;100979.00;10068156;28;20039;-68
2023/02/18 13:43:53;;;;;;;19.42;9.48;;;;;;;7.64;100.00;100995.41;10070356;28;20046;-69
2023/02/18 13:48:59;;;;;;;15.82;8.95;;;;;;;7.66;100.00;100990.50;10069628;28;20525;-69
2023/02/18 13:54:20;;;;;;;17.02;9.63;;;;;;;7.59;100.00;100984.59;10068576;28;20043;-69
2023/02/18 13:59:37;;;;;;;18.02;9.52;;;;;;;7.50;100.00;101003.47;10056028;28;20059;-68
2023/02/18 14:04:47;;;;;;;20.85;11.45;;;;;;;7.50;100.00;101013.53;10066272;28;20130;-68
2023/02/18 14:09:44;;;;;;;14.30;9.63;;;;;;;7.23;100.00;101030.41;10061873;28;20043;-69
2023/02/18 14:14:41;;;;;;;13.05;9.57;;;;;;;7.12;100.00;101035.13;10057703;28;20055;-69
2023/02/18 14:19:38;;;;;;;12.40;2.47;;;;;;;6.81;100.00;101051.72;10063976;28;20053;-69
2023/02/18 14:24:48;;;;;;;13.23;11.90;;;;;;;6.58;100.00;101079.63;10057060;28;20063;-69
2023/02/18 14:29:45;;;;;;;13.95;12.65;;;;;;;6.36;100.00;101083.56;10070259;28;20424;-69
2023/02/18 14:35:07;;;;;;;13.35;12.38;;;;;;;6.18;100.00;101093.16;10071223;28;20520;-69
2023/02/18 14:40:06;;;;;;;14.97;13.90;;;;;;;6.03;100.00;101107.59;10065164;28;20135;-69
2023/02/18 14:45:03;;;;;;;15.10;14.10;;;;;;;6.06;100.00;101122.53;10064684;28;20546;-69
2023/02/18 14:50:02;;;;;;;14.77;13.68;;;;;;;5.91;100.00;101131.50;10069276;28;20130;-69
2023/02/18 14:55:01;;;;;;;15.32;14.23;;;;;;;6.08;100.00;101126.59;10068496;28;20643;-68
2023/02/18 15:00:01;;;;;;;16.13;14.82;;;;;;;6.11;100.00;101136.88;10073667;28;20055;-69
2023/02/18 15:05:12;;;;;;;16.20;15.20;;;;;;;6.07;100.00;101135.81;10062599;28;20441;-69
2023/02/18 15:10:14;;;;;;;15.75;14.75;;;;;;;5.95;100.00;101138.03;10095395;28;20057;-68
2023/02/18 15:15:14;;;;;;;16.30;14.85;;;;;;;6.00;100.00;101157.00;10077045;28;20054;-69
2023/02/18 15:20:11;;;;;;;14.38;13.38;;;;;;;6.14;100.00;101142.88;10069636;28;20063;-69
2023/02/18 15:25:11;;;;;;;15.27;14.27;;;;;;;5.93;100.00;101164.59;10079401;28;20047;-68
2023/02/18 15:30:29;;;;;;;16.90;15.73;;;;;;;5.87;100.00;101195.56;10083184;28;20043;-69
2023/02/18 15:35:30;;;;;;;18.88;17.52;;;;;;;5.78;100.00;101208.03;10069892;28;20190;-69
2023/02/18 15:40:30;;;;;;;16.80;15.60;;;;;;;5.34;100.00;101217.56;10068161;28;20122;-69
2023/02/18 15:45:33;;;;;;;15.30;14.25;;;;;;;5.18;100.00;101230.31;10061495;28;20147;-69
2023/02/18 15:50:34;;;;;;;15.20;14.30;;;;;;;5.26;100.00;101235.19;10077080;28;20130;-69
2023/02/18 15:55:34;;;;;;;16.38;15.38;;;;;;;5.28;100.00;101238.44;10060194;28;20122;-69
2023/02/18 16:00:47;;;;;;;16.25;15.15;;;;;;;5.12;100.00;101236.78;10063182;28;20050;-69
2023/02/18 16:05:43;;;;;;;15.73;14.45;;;;;;;5.00;100.00;101241.66;10069601;28;20047;-69
2023/02/18 16:10:45;;;;;;;14.07;13.18;;;;;;;4.93;100.00;101246.50;10076528;28;20126;-69
2023/02/18 16:15:45;;;;;;;14.85;13.95;;;;;;;4.99;100.00;101257.09;10056635;28;20051;-69
2023/02/18 16:20:52;;;;;;;14.05;13.25;;;;;;;5.00;100.00;101268.75;10081196;28;21447;-68
2023/02/18 16:25:49;;;;;;;15.07;14.18;;;;;;;4.81;100.00;101285.50;10075814;28;20058;-68
2023/02/18 16:30:45;;;;;;;17.20;15.80;;;;;;;4.96;100.00;101289.31;10068605;28;20049;-68
2023/02/18 16:35:43;;;;;;;15.90;14.70;;;;;;;4.75;100.00;101294.66;10057664;28;20595;-69
2023/02/18 16:40:46;;;;;;;16.92;15.73;;;;;;;4.98;100.00;101293.41;10059001;28;20050;-68
2023/02/18 16:45:48;;;;;;;15.90;14.90;;;;;;;4.82;100.00;101305.25;10070630;28;20679;-69
2023/02/18 16:50:47;;;;;;;14.70;13.70;;;;;;;4.60;100.00;101313.56;10066767;28;20099;-69
2023/02/18 16:55:44;;;;;;;16.73;15.73;;;;;;;4.59;100.00;101306.50;10064384;28;20047;-69
2023/02/18 17:00:42;;;;;;;17.48;16.08;;;;;;;4.48;100.00;101315.66;10067875;28;20047;-69
2023/02/18 17:05:39;;;;;;;16.40;15.30;;;;;;;4.31;100.00;101316.63;10059153;28;20054;-69
2023/02/18 17:10:36;;;;;;;17.63;16.42;;;;;;;4.37;100.00;101337.25;10069866;28;20062;-69
2023/02/18 17:15:34;;;;;;;18.70;17.27;;;;;;;4.36;100.00;101345.63;10077788;28;20117;-69
2023/02/18 17:20:32;;;;;;;19.40;18.10;;;;;;;4.30;100.00;101363.75;10077260;28;20049;-69
2023/02/18 17:25:36;;;;;;;21.17;19.67;;;;;;;4.21;100.00;101366.13;10064456;28;20043;-69
2023/02/18 17:30:40;;;;;;;20.63;19.13;;;;;;;4.15;100.00;101363.63;10055250;28;20078;-69
2023/02/18 17:35:37;;;;;;;20.08;18.73;;;;;;;4.27;100.00;101385.94;10060846;28;20534;-69
2023/02/18 17:40:33;;;;;;;20.40;19.00;;;;;;;4.36;100.00;101384.38;10065001;28;20070;-69
2023/02/18 17:45:40;;;;;;;20.20;18.83;;;;;;;4.48;100.00;101396.91;10064817;28;20678;-69
2023/02/18 17:50:37;;;;;;;19.75;18.17;;;;;;;4.37;100.00;101399.53;10065243;28;20051;-69
2023/02/18 17:55:35;;;;;;;19.55;18.05;;;;;;;4.37;100.00;101402.25;10060728;28;20043;-68
2023/02/18 18:00:35;;;;;;;22.65;20.65;;;;;;;4.35;100.00;101404.38;10054627;28;20069;-69
2023/02/18 18:05:37;;;;;;;28.60;24.38;;;;;;;4.29;100.00;101404.59;10069121;28;20047;-69
2023/02/18 18:10:37;;;;;;;21.13;19.27;;;;;;;4.18;100.00;101425.38;10064431;28;20081;-69
2023/02/18 18:15:41;;;;;;;21.63;19.85;;;;;;;4.13;100.00;101436.13;10058363;28;20063;-68
2023/02/18 18:20:43;;;;;;;22.90;21.10;;;;;;;4.07;100.00;101439.91;10061980;28;20067;-69
2023/02/18 18:25:42;;;;;;;23.58;21.30;;;;;;;4.16;100.00;101450.00;10057774;28;20075;-70
2023/02/18 18:30:42;;;;;;;22.92;20.85;;;;;;;4.25;100.00;101458.47;10059588;28;20051;-70
2023/02/18 18:35:38;;;;;;;24.77;22.38;;;;;;;4.25;100.00;101471.16;10070479;28;20063;-69
2023/02/18 18:40:35;;;;;;;23.13;21.00;;;;;;;4.15;100.00;101474.59;10068820;28;20073;-70
2023/02/18 18:45:38;;;;;;;25.73;23.20;;;;;;;4.27;100.00;101477.97;10072822;28;20127;-70
2023/02/18 18:50:38;;;;;;;27.77;24.83;;;;;;;4.34;100.00;101491.28;10082179;28;20069;-70
2023/02/18 18:55:36;;;;;;;27.00;24.30;;;;;;;4.37;100.00;101494.31;10072113;28;20048;-70
2023/02/18 19:00:36;;;;;;;28.52;25.63;;;;;;;4.36;100.00;101503.50;10057517;28;20118;-69
2023/02/18 19:05:36;;;;;;;26.95;24.35;;;;;;;4.25;100.00;101507.19;10069290;28;20063;-70
2023/02/18 19:10:40;;;;;;;25.98;23.30;;;;;;;4.28;100.00;101505.84;10068995;28;20051;-70
2023/02/18 19:15:37;;;;;;;25.92;23.42;;;;;;;4.36;100.00;101519.75;10081981;28;20136;-70
2023/02/18 19:20:35;;;;;;;26.00;23.55;;;;;;;4.26;100.00;101514.22;10077262;28;20084;-70
2023/02/18 19:25:31;;;;;;;24.73;22.17;;;;;;;4.04;100.00;101516.16;10071908;28;20043;-70
2023/02/18 19:30:30;;;;;;;25.05;22.48;;;;;;;3.93;100.00;101528.78;10080103;28;20038;-70
2023/02/18 19:35:29;;;;;;;27.60;24.70;;;;;;;4.03;100.00;101530.78;10072731;28;20051;-70
2023/02/18 19:40:28;;;;;;;27.40;24.58;;;;;;;3.98;100.00;101532.34;10074451;28;20047;-70
2023/02/18 19:45:25;;;;;;;28.30;25.50;;;;;;;3.90;100.00;101527.41;10073253;28;20067;-70
2023/02/18 19:50:22;;;;;;;28.13;24.85;;;;;;;3.77;100.00;101530.47;10087147;28;20043;-69
2023/02/18 19:55:19;;;;;;;25.38;22.77;;;;;;;3.65;100.00;101536.00;10079224;28;20055;-69
2023/02/18 20:00:17;;;;;;;25.98;23.38;;;;;;;3.49;100.00;101548.50;10080790;28;20129;-70
2023/02/18 20:05:14;;;;;;;28.02;25.13;;;;;;;3.47;100.00;101553.34;10075412;28;20646;-69
2023/02/18 20:10:13;;;;;;;25.85;23.27;;;;;;;3.45;100.00;101550.06;10071677;28;20048;-70
2023/02/18 20:15:10;;;;;;;25.85;23.35;;;;;;;3.48;100.00;101567.69;10088369;28;20650;-69
2023/02/18 20:20:06;;;;;;;23.52;21.23;;;;;;;3.31;100.00;101565.03;10070153;28;20047;-69
2023/02/18 20:25:03;;;;;;;23.63;21.23;;;;;;;3.29;100.00;101565.25;10075622;28;20143;-69
2023/02/18 20:30:00;;;;;;;21.75;19.75;;;;;;;3.24;100.00;101561.69;10076705;28;20043;-70
2023/02/18 20:34:57;;;;;;;22.00;19.98;;;;;;;3.22;100.00;101553.00;10067398;28;20472;-70
2023/02/18 20:39:54;;;;;;;21.77;19.63;;;;;;;3.22;100.00;101547.59;10075095;28;20134;-70
2023/02/18 20:44:51;;;;;;;22.90;20.63;;;;;;;3.28;100.00;101562.81;10068488;28;20054;-70
2023/02/18 20:49:47;;;;;;;22.27;20.23;;;;;;;3.09;100.00;101560.38;10080340;28;20907;-69
2023/02/18 20:54:44;;;;;;;19.50;17.80;;;;;;;3.09;100.00;101571.19;10083460;28;20074;-70
2023/02/18 20:59:41;;;;;;;19.92;18.13;;;;;;;3.01;100.00;101568.88;10062384;28;20073;-70
2023/02/18 21:04:38;;;;;;;19.73;17.90;;;;;;;2.97;100.00;101578.56;10067852;28;20063;-70
2023/02/18 21:09:34;;;;;;;20.30;18.35;;;;;;;3.02;100.00;101573.25;10073968;28;20098;-69
2023/02/18 21:14:31;;;;;;;19.55;17.77;;;;;;;3.02;100.00;101575.94;10065801;28;20053;-70
2023/02/18 21:19:28;;;;;;;18.55;16.95;;;;;;;3.06;100.00;101566.25;10072591;28;20066;-70
2023/02/18 21:24:24;;;;;;;18.27;16.55;;;;;;;2.95;100.00;101564.50;10077482;28;20170;-70
2023/02/18 21:29:21;;;;;;;18.63;16.92;;;;;;;3.00;100.00;101567.28;10076563;28;20047;-69
2023/02/18 21:34:18;;;;;;;16.83;15.43;;;;;;;2.88;100.00;101551.16;10073885;28;20055;-70
2023/02/18 21:39:15;;;;;;;19.75;17.85;;;;;;;2.93;100.00;101550.41;10070816;28;20051;-69
2023/02/18 21:44:11;;;;;;;21.08;18.95;;;;;;;2.98;100.00;101550.47;10071010;28;20122;-69
2023/02/18 21:49:11;;;;;;;22.58;20.23;;;;;;;2.97;100.00;101540.75;10082034;28;20069;-70
2023/02/18 21:54:07;;;;;;;20.60;18.90;;;;;;;2.99;100.00;101532.38;10081783;28;20044;-70
2023/02/18 21:59:04;;;;;;;20.30;18.33;;;;;;;3.00;100.00;101545.66;10066785;28;20078;-69
2023/02/18 22:04:00;;;;;;;18.58;16.88;;;;;;;2.90;100.00;101545.47;10068696;28;20122;-69
2023/02/18 22:08:59;;;;;;;19.17;17.35;;;;;;;2.87;100.00;101552.19;10060923;28;20051;-68
2023/02/18 22:13:56;;;;;;;22.08;19.33;;;;;;;3.05;100.00;101553.84;10056618;28;20509;-69
2023/02/18 22:18:54;;;;;;;19.50;17.67;;;;;;;3.06;100.00;101563.56;10071849;28;20532;-70
2023/02/18 22:23:50;;;;;;;20.30;18.55;;;;;;;3.02;100.00;101559.75;10068786;28;20489;-69
2023/02/18 22:28:54;;;;;;;20.45;18.55;;;;;;;3.17;100.00;101556.44;10064674;28;20062;-69
2023/02/18 22:33:51;;;;;;;26.80;21.25;;;;;;;3.25;100.00;101552.47;10065226;28;20135;-69
2023/02/18 22:38:48;;;;;;;21.45;19.60;;;;;;;3.46;100.00;101542.78;10066065;28;20051;-69